Gagetown, Michigan
Current Conditions -  °F | °C
As of 8:55 AM on Monday 20 Oct 2014 (Local Time) from KCFS Reporting Station
Overcast Overcast  
Wind Chill: 45°   Ceiling: 4900
Heat Index: 47°   Visibility: 10mi
Dew Point: 45°   Wind: 5mph
Humidity: 92%   Direction: 200°SSW
Pressure: 29.81"   Gusts: NA
Location:  43.66°N, 83.24°W
Report Text: KCFS 201255Z AUTO 20004KT 10SM BKN049 OVC085 09/07 A2981 RMK AO2 T00850073
Loading
Personal Weather Stations






























Interactive Weather Map
Tropical Storm Tracking
New forecast layout! Learn more

10-Day Weather Forecast

Advertisements
Track Severe Weather on mobile